createdAt,value
2018-08-20T00:01:33.060Z,62.70
2018-08-20T00:04:06.707Z,63.00
2018-08-20T00:06:48.502Z,63.00
2018-08-20T00:09:17.780Z,63.30
2018-08-20T00:11:48.156Z,63.10
2018-08-20T00:14:18.946Z,63.50
2018-08-20T00:16:47.830Z,63.70
2018-08-20T00:19:16.682Z,63.20
2018-08-20T00:21:45.617Z,63.50
2018-08-20T00:24:14.226Z,63.60
2018-08-20T00:26:42.877Z,63.50
2018-08-20T00:29:11.558Z,63.70
2018-08-20T00:31:40.123Z,64.30
2018-08-20T00:34:08.753Z,65.30
2018-08-20T00:36:37.345Z,64.70
2018-08-20T00:39:07.812Z,64.70
2018-08-20T00:41:36.455Z,64.70
2018-08-20T00:44:10.333Z,64.80
2018-08-20T00:46:38.940Z,65.90
2018-08-20T00:49:07.620Z,65.30
2018-08-20T00:51:36.490Z,65.20
2018-08-20T00:54:05.142Z,65.70
2018-08-20T00:56:33.747Z,65.80
2018-08-20T00:59:03.382Z,66.10
2018-08-20T01:01:33.345Z,65.90
2018-08-20T01:04:02.835Z,65.90
2018-08-20T01:06:31.968Z,66.60
2018-08-20T01:09:00.596Z,66.90
2018-08-20T01:11:29.252Z,67.00
2018-08-20T01:13:57.907Z,68.00
2018-08-20T01:16:26.561Z,67.60
2018-08-20T01:18:55.223Z,67.60
2018-08-20T01:21:23.881Z,67.50
2018-08-20T01:23:52.511Z,67.70
2018-08-20T01:26:21.150Z,68.40
2018-08-20T01:28:49.783Z,68.40
2018-08-20T01:31:18.462Z,68.20
2018-08-20T01:33:47.346Z,68.80
2018-08-20T01:36:15.959Z,68.80
2018-08-20T01:38:44.688Z,69.40
2018-08-20T01:41:13.375Z,69.00
2018-08-20T01:43:42.043Z,68.80
2018-08-20T01:46:10.803Z,69.30
2018-08-20T01:48:39.406Z,69.30
2018-08-20T01:51:08.116Z,69.30
2018-08-20T01:53:36.767Z,69.00
2018-08-20T01:56:05.439Z,69.40
2018-08-20T01:58:34.110Z,69.30
2018-08-20T02:01:02.868Z,69.10
2018-08-20T02:03:31.600Z,69.20
2018-08-20T02:06:00.270Z,69.70
2018-08-20T02:08:30.751Z,70.10
2018-08-20T02:10:59.508Z,68.90
2018-08-20T02:13:28.161Z,69.10
2018-08-20T02:15:56.831Z,69.70
2018-08-20T02:18:25.555Z,69.40
2018-08-20T02:20:54.489Z,69.40
2018-08-20T02:23:23.363Z,69.10
2018-08-20T02:25:53.078Z,69.10
2018-08-20T02:28:22.077Z,69.70
2018-08-20T02:30:50.765Z,68.70
2018-08-20T02:33:19.438Z,68.50
2018-08-20T02:35:48.136Z,68.60
2018-08-20T02:38:16.863Z,69.30
2018-08-20T02:40:45.647Z,68.70
2018-08-20T02:43:14.304Z,69.10
2018-08-20T02:45:42.930Z,68.80
2018-08-20T02:48:11.674Z,68.90
2018-08-20T02:50:40.321Z,68.90
2018-08-20T02:53:08.999Z,69.60
2018-08-20T02:55:37.698Z,69.00
2018-08-20T02:58:06.490Z,69.30
2018-08-20T03:00:35.153Z,69.00
2018-08-20T03:03:04.751Z,68.80
2018-08-20T03:05:33.990Z,69.70
2018-08-20T03:08:02.909Z,69.40
2018-08-20T03:10:31.585Z,69.10
2018-08-20T03:13:00.314Z,69.10
2018-08-20T03:15:28.912Z,69.60
2018-08-20T03:17:57.571Z,69.60
2018-08-20T03:20:26.266Z,69.30
2018-08-20T03:22:54.894Z,69.60
2018-08-20T03:25:23.520Z,69.20
2018-08-20T03:27:52.203Z,69.30
2018-08-20T03:30:20.828Z,69.60
2018-08-20T03:32:49.571Z,70.00
2018-08-20T03:35:18.247Z,69.90
2018-08-20T03:37:46.939Z,69.00
2018-08-20T03:40:15.607Z,69.60
2018-08-20T03:42:45.312Z,69.20
2018-08-20T03:45:13.954Z,69.20
2018-08-20T03:47:42.642Z,69.60
2018-08-20T03:50:13.483Z,70.20
2018-08-20T03:52:42.162Z,69.30
2018-08-20T03:55:10.821Z,69.90
2018-08-20T03:57:39.530Z,69.60
2018-08-20T04:00:09.704Z,70.20
2018-08-20T04:02:38.385Z,70.00
2018-08-20T04:05:07.347Z,69.30
2018-08-20T04:07:35.930Z,69.50
2018-08-20T04:10:04.694Z,69.80
2018-08-20T04:12:33.420Z,70.00
2018-08-20T04:15:02.156Z,70.00
2018-08-20T04:17:30.802Z,70.20
2018-08-20T04:19:59.419Z,70.80
2018-08-20T04:22:28.002Z,70.40
2018-08-20T04:24:56.642Z,70.40
2018-08-20T04:27:25.238Z,70.50
2018-08-20T04:29:53.899Z,70.00
2018-08-20T04:32:22.491Z,70.30
2018-08-20T04:34:51.219Z,70.20
2018-08-20T04:37:19.907Z,70.40
2018-08-20T04:39:48.536Z,70.40
2018-08-20T04:42:17.212Z,70.60
2018-08-20T04:44:45.852Z,70.20
2018-08-20T04:47:14.688Z,70.80
2018-08-20T04:49:43.350Z,70.90
2018-08-20T04:52:12.015Z,71.00
2018-08-20T04:54:40.645Z,70.30
2018-08-20T04:57:09.401Z,70.10
2018-08-20T04:59:38.064Z,71.10
2018-08-20T05:02:06.882Z,70.70
2018-08-20T05:04:35.581Z,70.30
2018-08-20T05:07:04.322Z,70.70
2018-08-20T05:09:32.967Z,70.20
2018-08-20T05:12:01.580Z,70.30
2018-08-20T05:14:30.212Z,69.80
2018-08-20T05:16:59.980Z,69.80
2018-08-20T05:19:28.665Z,70.00
2018-08-20T05:21:57.246Z,69.40
2018-08-20T05:24:25.851Z,69.10
2018-08-20T05:26:54.501Z,69.00
2018-08-20T05:29:23.221Z,68.80
2018-08-20T05:31:51.784Z,68.90
2018-08-20T05:34:20.495Z,69.20
2018-08-20T05:36:49.066Z,68.80
2018-08-20T05:39:17.799Z,69.00
2018-08-20T05:41:46.390Z,68.80
2018-08-20T05:44:15.046Z,68.80
2018-08-20T05:46:43.671Z,68.40
2018-08-20T05:49:12.317Z,68.40
2018-08-20T05:51:41.091Z,68.20
2018-08-20T05:54:09.744Z,67.60
2018-08-20T05:56:38.347Z,67.40
2018-08-20T05:59:07.165Z,67.50
2018-08-20T06:01:35.824Z,67.40
2018-08-20T06:04:04.535Z,67.90
2018-08-20T06:06:33.364Z,67.20
2018-08-20T06:09:02.140Z,67.30
2018-08-20T06:11:30.786Z,66.40
2018-08-20T06:13:59.418Z,66.40
2018-08-20T06:16:28.062Z,66.00
2018-08-20T06:18:56.752Z,65.50
2018-08-20T06:21:25.389Z,64.90
2018-08-20T06:23:54.111Z,64.20
2018-08-20T06:26:22.788Z,64.20
2018-08-20T06:28:51.491Z,63.60
2018-08-20T06:31:20.167Z,63.10
2018-08-20T06:33:48.807Z,62.70
2018-08-20T06:36:17.427Z,62.70
2018-08-20T06:38:46.155Z,61.70
2018-08-20T06:41:14.893Z,61.40
2018-08-20T06:43:43.563Z,60.00
2018-08-20T06:46:12.297Z,58.90
2018-08-20T06:48:41.063Z,57.60
2018-08-20T06:51:09.765Z,55.60
2018-08-20T06:53:38.442Z,54.30
2018-08-20T06:56:07.196Z,52.70
2018-08-20T06:58:35.994Z,51.40
2018-08-20T07:01:04.758Z,49.80
2018-08-20T07:03:33.482Z,49.20
2018-08-20T07:06:02.185Z,47.50
2018-08-20T07:08:30.891Z,46.30
2018-08-20T07:10:59.630Z,45.30
2018-08-20T07:13:31.144Z,44.40
2018-08-20T07:15:59.781Z,43.40
2018-08-20T07:18:28.555Z,43.40
2018-08-20T07:20:57.540Z,43.20
2018-08-20T07:23:26.705Z,43.80
2018-08-20T07:25:55.373Z,43.20
2018-08-20T07:28:24.144Z,43.60
2018-08-20T07:30:52.923Z,43.50
2018-08-20T07:33:21.684Z,43.70
2018-08-20T07:35:50.328Z,45.40
2018-08-20T07:38:19.011Z,46.00
2018-08-20T07:40:47.811Z,46.20
2018-08-20T07:43:16.481Z,46.70
2018-08-20T07:45:45.150Z,46.70
2018-08-20T07:48:13.869Z,45.30
2018-08-20T07:50:42.531Z,46.20
2018-08-20T07:53:11.194Z,45.30
2018-08-20T07:55:39.930Z,44.60
2018-08-20T07:58:09.077Z,43.00
2018-08-20T08:00:37.846Z,43.30
2018-08-20T08:03:06.671Z,42.80
2018-08-20T08:05:35.322Z,42.40
2018-08-20T08:08:04.119Z,42.20
2018-08-20T08:10:32.777Z,42.30
2018-08-20T08:13:01.441Z,42.10
2018-08-20T08:15:31.026Z,41.40
2018-08-20T08:17:59.708Z,42.00
2018-08-20T08:20:28.407Z,40.70
2018-08-20T08:22:57.095Z,40.80
2018-08-20T08:25:25.807Z,40.70
2018-08-20T08:27:54.597Z,40.70
2018-08-20T08:30:23.325Z,40.20
2018-08-20T08:32:52.010Z,40.10
2018-08-20T08:35:20.768Z,40.30
2018-08-20T08:37:49.442Z,39.60
2018-08-20T08:40:18.096Z,40.00
2018-08-20T08:42:46.910Z,38.80
2018-08-20T08:45:17.489Z,39.50
2018-08-20T08:47:46.674Z,39.70
2018-08-20T08:50:16.602Z,39.10
2018-08-20T08:52:45.692Z,39.70
2018-08-20T08:55:14.423Z,38.50
2018-08-20T08:57:43.091Z,38.00
2018-08-20T09:00:14.992Z,37.60
2018-08-20T09:02:43.807Z,38.40
2018-08-20T09:05:12.842Z,38.70
2018-08-20T09:07:42.287Z,38.30
2018-08-20T09:10:11.611Z,37.00
2018-08-20T09:12:40.491Z,35.10
2018-08-20T09:15:13.731Z,35.50
2018-08-20T09:17:42.611Z,37.20
2018-08-20T09:20:13.427Z,37.20
2018-08-20T09:22:42.176Z,37.70
2018-08-20T09:25:11.801Z,36.70
2018-08-20T09:27:41.257Z,37.10
2018-08-20T09:30:18.618Z,37.50
2018-08-20T09:32:47.728Z,37.70
2018-08-20T09:35:16.551Z,38.40
2018-08-20T09:37:45.411Z,39.30
2018-08-20T09:40:14.449Z,37.90
2018-08-20T09:42:43.488Z,37.90
2018-08-20T09:45:12.179Z,35.90
2018-08-20T09:47:41.610Z,35.90
2018-08-20T09:50:12.841Z,35.80
2018-08-20T09:52:41.974Z,34.30
2018-08-20T09:55:10.882Z,34.00
2018-08-20T09:57:39.832Z,33.30
2018-08-20T10:00:15.920Z,32.00
2018-08-20T10:02:44.521Z,31.30
2018-08-20T10:05:13.274Z,30.80
2018-08-20T10:07:42.440Z,29.90
2018-08-20T10:10:11.049Z,29.50
2018-08-20T10:12:39.697Z,29.50
2018-08-20T10:15:08.452Z,29.10
2018-08-20T10:17:37.123Z,29.50
2018-08-20T10:20:07.993Z,29.10
2018-08-20T10:22:36.747Z,29.40
2018-08-20T10:25:05.680Z,28.60
2018-08-20T10:27:34.375Z,28.80
2018-08-20T10:30:03.087Z,29.10
2018-08-20T10:32:32.303Z,29.50
2018-08-20T10:35:01.534Z,28.90
2018-08-20T10:37:30.405Z,27.80
2018-08-20T10:39:59.028Z,28.10
2018-08-20T10:42:27.779Z,28.40
2018-08-20T10:45:01.692Z,28.50
2018-08-20T10:47:30.503Z,28.60
2018-08-20T10:49:59.199Z,28.50
2018-08-20T10:52:28.105Z,27.70
2018-08-20T10:54:56.872Z,27.50
2018-08-20T10:57:25.596Z,27.70
2018-08-20T10:59:54.190Z,28.50
2018-08-20T11:02:23.062Z,29.70
2018-08-20T11:04:54.694Z,29.80
2018-08-20T11:07:23.885Z,28.70
2018-08-20T11:09:52.535Z,29.20
2018-08-20T11:12:21.185Z,29.30
2018-08-20T11:14:51.193Z,29.40
2018-08-20T11:17:19.828Z,28.80
2018-08-20T11:19:48.482Z,29.10
2018-08-20T11:22:17.165Z,28.80
2018-08-20T11:24:45.943Z,29.20
2018-08-20T11:27:14.649Z,29.10
2018-08-20T11:29:43.288Z,29.80
2018-08-20T11:32:11.939Z,30.70
2018-08-20T11:34:40.619Z,30.60
2018-08-20T11:37:09.327Z,31.60
2018-08-20T11:39:37.925Z,32.50
2018-08-20T11:42:06.738Z,33.30
2018-08-20T11:44:35.383Z,34.10
2018-08-20T11:47:04.030Z,33.90
2018-08-20T11:49:33.751Z,34.20
2018-08-20T11:52:02.436Z,34.10
2018-08-20T11:54:31.067Z,35.30
2018-08-20T11:56:59.773Z,34.70
2018-08-20T11:59:28.388Z,35.10
2018-08-20T12:01:57.071Z,35.60
2018-08-20T12:04:25.766Z,35.90
2018-08-20T12:06:54.391Z,36.20
2018-08-20T12:09:23.136Z,37.00
2018-08-20T12:11:52.827Z,37.10
2018-08-20T12:14:21.522Z,37.80
2018-08-20T12:16:50.252Z,38.20
2018-08-20T12:19:19.947Z,37.30
2018-08-20T12:21:48.555Z,38.20
2018-08-20T12:24:17.167Z,37.70
2018-08-20T12:26:45.807Z,38.70
2018-08-20T12:29:14.489Z,38.60
2018-08-20T12:31:43.129Z,39.90
2018-08-20T12:34:11.839Z,39.20
2018-08-20T12:36:40.543Z,40.20
2018-08-20T12:39:09.460Z,40.40
2018-08-20T12:41:38.357Z,40.20
2018-08-20T12:44:06.961Z,40.00
2018-08-20T12:46:35.578Z,39.50
2018-08-20T12:49:04.276Z,40.00
2018-08-20T12:51:32.904Z,39.60
2018-08-20T12:54:01.568Z,39.40
2018-08-20T12:56:30.286Z,39.70
2018-08-20T12:58:58.914Z,40.50
2018-08-20T13:01:27.598Z,40.20
2018-08-20T13:03:56.179Z,39.70
2018-08-20T13:06:24.786Z,40.00
2018-08-20T13:08:53.575Z,40.10
2018-08-20T13:11:22.191Z,40.10
2018-08-20T13:13:50.835Z,39.30
2018-08-20T13:16:19.558Z,39.80
2018-08-20T13:18:48.266Z,40.00
2018-08-20T13:21:18.907Z,40.30
2018-08-20T13:23:47.537Z,40.50
2018-08-20T13:26:16.198Z,40.40
2018-08-20T13:28:44.955Z,40.20
2018-08-20T13:31:13.566Z,39.50
2018-08-20T13:33:42.232Z,40.70
2018-08-20T13:36:10.922Z,41.10
2018-08-20T13:38:39.607Z,41.30
2018-08-20T13:41:08.665Z,41.30
2018-08-20T13:43:37.322Z,40.90
2018-08-20T13:46:06.082Z,41.00
2018-08-20T13:48:34.729Z,40.70
2018-08-20T13:51:03.896Z,40.20
2018-08-20T13:53:32.532Z,40.40
2018-08-20T13:56:01.375Z,40.80
2018-08-20T13:58:31.068Z,41.10
2018-08-20T14:00:59.793Z,40.20
2018-08-20T14:03:28.504Z,41.00
2018-08-20T14:05:58.172Z,40.20
2018-08-20T14:08:26.831Z,40.30
2018-08-20T14:10:55.505Z,40.50
2018-08-20T14:13:24.327Z,40.70
2018-08-20T14:15:53.024Z,40.40
2018-08-20T14:18:21.653Z,40.20
2018-08-20T14:21:09.307Z,40.30
2018-08-20T14:23:39.164Z,39.00
2018-08-20T14:26:09.905Z,40.00
2018-08-20T14:28:39.625Z,40.10
2018-08-20T14:31:08.340Z,40.60
2018-08-20T14:33:37.031Z,41.10
2018-08-20T14:36:06.000Z,41.10
2018-08-20T14:38:34.964Z,40.80
2018-08-20T14:41:04.069Z,38.90
2018-08-20T14:43:32.758Z,39.20
2018-08-20T14:46:06.488Z,40.20
2018-08-20T14:48:38.632Z,40.10
2018-08-20T14:51:07.295Z,39.60
2018-08-20T14:53:35.936Z,40.70
2018-08-20T14:56:04.725Z,41.20
2018-08-20T14:58:34.589Z,41.20
2018-08-20T15:01:03.434Z,41.00
2018-08-20T15:03:32.485Z,40.70
2018-08-20T15:06:01.278Z,40.70
2018-08-20T15:08:31.007Z,41.30
2018-08-20T15:11:00.526Z,40.80
2018-08-20T15:13:30.867Z,40.80
2018-08-20T15:15:59.917Z,40.10
2018-08-20T15:18:28.619Z,40.40
2018-08-20T15:20:57.606Z,40.80
2018-08-20T15:23:27.383Z,40.30
2018-08-20T15:25:58.453Z,39.70
2018-08-20T15:28:27.139Z,40.30
2018-08-20T15:30:55.725Z,40.80
2018-08-20T15:33:24.422Z,41.50
2018-08-20T15:35:53.132Z,41.00
2018-08-20T15:38:21.786Z,40.90
2018-08-20T15:40:50.908Z,40.30
2018-08-20T15:43:19.710Z,40.90
2018-08-20T15:45:48.604Z,40.80
2018-08-20T15:48:17.592Z,41.00
2018-08-20T15:50:46.873Z,40.90
2018-08-20T15:53:16.096Z,40.90
2018-08-20T15:55:44.759Z,40.90
2018-08-20T15:58:16.502Z,40.60
2018-08-20T16:00:45.227Z,41.20
2018-08-20T16:03:27.222Z,41.20
2018-08-20T16:05:55.930Z,40.20
2018-08-20T16:08:24.616Z,41.30
2018-08-20T16:10:53.276Z,41.40
2018-08-20T16:13:21.992Z,41.10
2018-08-20T16:15:50.650Z,41.10
2018-08-20T16:18:20.032Z,41.30
2018-08-20T16:20:48.727Z,41.20
2018-08-20T16:23:17.363Z,41.00
2018-08-20T16:25:46.007Z,41.00
2018-08-20T16:28:14.704Z,41.10
2018-08-20T16:30:43.346Z,41.30
2018-08-20T16:33:11.972Z,41.40
2018-08-20T16:35:42.875Z,41.40
2018-08-20T16:38:11.599Z,41.30
2018-08-20T16:40:40.364Z,41.30
2018-08-20T16:43:09.040Z,41.30
2018-08-20T16:45:37.832Z,41.50
2018-08-20T16:48:06.702Z,40.80
2018-08-20T16:50:35.453Z,41.40
2018-08-20T16:53:04.329Z,41.30
2018-08-20T16:55:33.017Z,41.20
2018-08-20T16:58:02.866Z,40.70
2018-08-20T17:00:33.575Z,40.80
2018-08-20T17:03:02.241Z,41.30
2018-08-20T17:05:39.167Z,42.10
2018-08-20T17:08:07.846Z,42.10
2018-08-20T17:10:36.486Z,42.00
2018-08-20T17:13:05.679Z,41.90
2018-08-20T17:15:34.759Z,41.70
2018-08-20T17:18:03.580Z,41.80
2018-08-20T17:20:32.284Z,42.50
2018-08-20T17:23:12.951Z,42.60
2018-08-20T17:25:41.714Z,41.80
2018-08-20T17:28:10.441Z,41.50
2018-08-20T17:30:39.127Z,41.90
2018-08-20T17:33:08.257Z,42.60
2018-08-20T17:35:41.988Z,42.80
2018-08-20T17:38:10.633Z,43.00
2018-08-20T17:40:40.215Z,42.50
2018-08-20T17:43:09.607Z,42.40
2018-08-20T17:45:38.247Z,42.60
2018-08-20T17:48:10.580Z,42.40
2018-08-20T17:50:41.627Z,42.40
2018-08-20T17:53:10.342Z,42.10
2018-08-20T17:55:39.011Z,42.40
2018-08-20T17:58:07.931Z,41.90
2018-08-20T18:00:42.408Z,42.10
2018-08-20T18:03:17.220Z,42.00
2018-08-20T18:05:50.447Z,41.90
2018-08-20T18:08:19.753Z,43.80
2018-08-20T18:10:48.803Z,42.90
2018-08-20T18:13:32.235Z,42.90
2018-08-20T18:16:02.236Z,43.60
2018-08-20T18:18:31.678Z,42.80
2018-08-20T18:21:00.425Z,43.00
2018-08-20T18:23:30.130Z,43.10
2018-08-20T18:25:58.754Z,43.50
2018-08-20T18:28:27.675Z,43.20
2018-08-20T18:31:05.481Z,43.60
2018-08-20T18:33:34.535Z,43.90
2018-08-20T18:36:07.779Z,43.60
2018-08-20T18:38:40.673Z,44.00
2018-08-20T18:41:09.421Z,44.60
2018-08-20T18:43:38.105Z,44.70
2018-08-20T18:46:07.536Z,44.20
2018-08-20T18:48:39.854Z,44.50
2018-08-20T18:51:10.689Z,44.40
2018-08-20T18:53:39.358Z,44.80
2018-08-20T18:56:13.983Z,44.60
2018-08-20T18:58:43.332Z,44.70
2018-08-20T19:01:12.225Z,44.90
2018-08-20T19:03:48.806Z,45.30
2018-08-20T19:06:18.125Z,45.80
2018-08-20T19:08:47.235Z,45.50
2018-08-20T19:11:15.985Z,46.70
2018-08-20T19:13:46.105Z,45.60
2018-08-20T19:16:35.387Z,45.50
2018-08-20T19:19:04.398Z,45.70
2018-08-20T19:21:36.342Z,46.20
2018-08-20T19:24:05.140Z,45.80
2018-08-20T19:26:33.842Z,46.30
2018-08-20T19:29:12.408Z,45.80
2018-08-20T19:31:41.119Z,46.00
2018-08-20T19:34:09.831Z,45.40
2018-08-20T19:36:38.716Z,45.10
2018-08-20T19:39:07.866Z,45.70
2018-08-20T19:41:36.536Z,45.40
2018-08-20T19:44:05.327Z,45.90
2018-08-20T19:46:38.341Z,45.70
2018-08-20T19:49:11.481Z,46.10
2018-08-20T19:51:41.773Z,46.80
2018-08-20T19:54:12.563Z,47.20
2018-08-20T19:56:41.428Z,47.60
2018-08-20T19:59:10.466Z,48.00
2018-08-20T20:01:39.260Z,48.00
2018-08-20T20:04:11.260Z,47.80
2018-08-20T20:06:40.023Z,47.80
2018-08-20T20:09:10.270Z,48.40
2018-08-20T20:11:46.196Z,48.50
2018-08-20T20:14:15.250Z,48.40
2018-08-20T20:16:49.366Z,48.60
2018-08-20T20:19:18.415Z,48.50
2018-08-20T20:21:47.156Z,49.20
2018-08-20T20:24:15.820Z,48.70
2018-08-20T20:26:44.542Z,49.50
2018-08-20T20:29:13.369Z,49.50
2018-08-20T20:31:42.760Z,48.90
2018-08-20T20:34:12.704Z,49.30
2018-08-20T20:36:41.398Z,50.30
2018-08-20T20:39:11.578Z,49.90
2018-08-20T20:41:40.431Z,50.30
2018-08-20T20:44:09.803Z,50.50
2018-08-20T20:46:38.495Z,50.60
2018-08-20T20:49:07.268Z,51.40
2018-08-20T20:51:36.065Z,50.90
2018-08-20T20:54:04.772Z,51.30
2018-08-20T20:56:33.674Z,51.70
2018-08-20T20:59:02.457Z,51.70
2018-08-20T21:01:31.176Z,51.20
2018-08-20T21:04:03.319Z,51.40
2018-08-20T21:06:32.095Z,51.20
2018-08-20T21:09:00.811Z,51.30
2018-08-20T21:11:29.409Z,51.40
2018-08-20T21:13:58.111Z,52.20
2018-08-20T21:16:26.797Z,52.20
2018-08-20T21:18:56.571Z,52.00
2018-08-20T21:21:25.930Z,52.00
2018-08-20T21:23:56.102Z,52.20
2018-08-20T21:26:24.779Z,52.30
2018-08-20T21:28:54.390Z,52.20
2018-08-20T21:31:24.388Z,52.60
2018-08-20T21:33:55.959Z,53.00
2018-08-20T21:36:24.852Z,52.60
2018-08-20T21:38:53.575Z,53.50
2018-08-20T21:41:22.842Z,53.50
2018-08-20T21:43:51.673Z,53.00
2018-08-20T21:46:20.430Z,53.60
2018-08-20T21:48:49.191Z,53.50
2018-08-20T21:51:25.335Z,54.20
2018-08-20T21:53:54.058Z,54.20
2018-08-20T21:56:22.801Z,54.00
2018-08-20T21:58:51.468Z,54.20
2018-08-20T22:01:20.256Z,54.50
2018-08-20T22:03:48.827Z,54.40
2018-08-20T22:06:17.562Z,55.00
2018-08-20T22:08:46.290Z,55.10
2018-08-20T22:11:15.075Z,55.20
2018-08-20T22:13:43.752Z,54.80
2018-08-20T22:16:17.140Z,55.30
2018-08-20T22:18:47.496Z,55.00
2018-08-20T22:21:17.356Z,55.10
2018-08-20T22:23:46.685Z,55.40
2018-08-20T22:26:19.838Z,55.10
2018-08-20T22:28:50.855Z,55.40
2018-08-20T22:31:20.414Z,55.40
2018-08-20T22:33:57.198Z,56.10
2018-08-20T22:36:26.726Z,55.80
2018-08-20T22:38:56.580Z,56.30
2018-08-20T22:41:26.320Z,56.80
2018-08-20T22:43:55.143Z,56.80
2018-08-20T22:46:24.307Z,56.70
2018-08-20T22:48:54.754Z,56.80
2018-08-20T22:51:24.593Z,57.30
2018-08-20T22:53:58.410Z,57.20
2018-08-20T22:56:29.446Z,57.00
2018-08-20T22:58:59.435Z,57.70
2018-08-20T23:01:28.173Z,57.10
2018-08-20T23:03:57.907Z,57.20
2018-08-20T23:06:26.719Z,57.40
2018-08-20T23:08:55.455Z,57.50
2018-08-20T23:11:37.164Z,57.40
2018-08-20T23:14:06.970Z,58.80
2018-08-20T23:16:35.897Z,57.70
2018-08-20T23:19:04.626Z,57.40
2018-08-20T23:21:38.756Z,57.60
2018-08-20T23:24:07.745Z,57.80
2018-08-20T23:26:36.356Z,57.60
2018-08-20T23:29:05.051Z,58.40
2018-08-20T23:31:33.758Z,58.00
2018-08-20T23:34:02.391Z,57.90
2018-08-20T23:36:31.074Z,58.60
2018-08-20T23:38:59.722Z,58.60
2018-08-20T23:41:28.409Z,58.80
2018-08-20T23:44:01.135Z,58.40
2018-08-20T23:46:37.719Z,59.00
2018-08-20T23:49:06.531Z,59.20
2018-08-20T23:51:35.191Z,59.00
2018-08-20T23:54:03.905Z,59.40
2018-08-20T23:56:32.620Z,59.50
2018-08-20T23:59:01.383Z,59.70
